Decoded Metar for KRCX (LADYSMITH/RUSK in WI, USA) (IATA:RCX) | Meteo·Mobile Aviation Weather
aviador You're here:

KRCX Decoded Metar

LADYSMITH/RUSK in WI, USA
Report Time2019-01-19 01:35:00
UTC Time2019-01-19 01:48:48
Flight Rules vfr VFR
Wind020° at 09 kt
W.Decomp.*RWY 01: 8.9 kt HW 1.6 kt RCW
RWY 32: 4.5 kt HW 7.8 kt RCW
W.Rank020° ranks 31
Current wind is above 020° avg. (6.7)
Visibility9999 m
Phenomena:N/A
Clouds:Scattered 070 Hf
Overcast 090 Hf
Expected CloudBase > 2,000 ft AGL from Temp-Dew spread
Ceiling9,000 ft
Temp-12°C (ISA -25)
Dew Point-17°C (67% RH)
AAT-18.7°C
QNH1026 hPa
Density Alt-2,254 ft
Elevation1,237 ft
Report Wrong Elevation
Raw Report
KRCX 190135Z AUTO 02009KT 10SM SCT070 OVC090 M12/M17 A3030 RMK AO2
T11201174=

Extra information for KRCX:More info

Metar Taf Metar & Taf Last 4 Metars F.Rules Stats Wind Profile Meteogram Temp Stats Airport Information Weather charts Add Link Nearby VenuesMetar ALERT Operation Metar Decoded Social comments

AIRNAV info for KRCX